createdAt,value
2022-08-01T00:00:09.142Z,1.80
2022-08-01T00:02:36.833Z,1.65
2022-08-01T00:05:03.623Z,1.85
2022-08-01T00:07:30.224Z,1.20
2022-08-01T00:09:56.746Z,1.98
2022-08-01T00:12:23.314Z,1.38
2022-08-01T00:14:50.056Z,1.45
2022-08-01T00:17:16.790Z,1.38
2022-08-01T00:19:43.332Z,3.88
2022-08-01T00:22:10.177Z,1.20
2022-08-01T00:24:36.864Z,1.75
2022-08-01T00:27:03.482Z,1.58
2022-08-01T00:30:11.862Z,1.00
2022-08-01T00:32:16.915Z,2.03
2022-08-01T00:34:43.455Z,1.45
2022-08-01T00:37:10.370Z,1.60
2022-08-01T00:39:42.077Z,2.00
2022-08-01T00:42:10.447Z,2.38
2022-08-01T00:44:37.230Z,1.33
2022-08-01T00:47:04.602Z,0.82
2022-08-01T00:49:31.667Z,1.15
2022-08-01T00:51:59.418Z,1.65
2022-08-01T00:54:27.695Z,1.20
2022-08-01T00:56:55.040Z,2.47
2022-08-01T00:59:25.932Z,2.40
2022-08-01T01:01:53.709Z,1.95
2022-08-01T01:04:20.486Z,1.48
2022-08-01T01:06:49.867Z,1.63
2022-08-01T01:09:22.092Z,1.55
2022-08-01T01:12:06.000Z,3.13
2022-08-01T01:14:39.035Z,1.10
2022-08-01T01:17:09.896Z,1.83
2022-08-01T01:19:44.198Z,1.50
2022-08-01T01:22:47.347Z,1.33
2022-08-01T01:25:23.068Z,1.50
2022-08-01T01:28:03.169Z,1.58
2022-08-01T01:30:31.981Z,1.30
2022-08-01T01:33:02.209Z,4.03
2022-08-01T01:35:33.470Z,2.65
2022-08-01T01:38:10.170Z,1.52
2022-08-01T01:40:39.013Z,2.33
2022-08-01T01:43:10.653Z,1.48
2022-08-01T01:45:38.465Z,2.97
2022-08-01T01:48:07.442Z,2.95
2022-08-01T01:50:35.787Z,2.20
2022-08-01T01:53:05.113Z,1.65
2022-08-01T01:55:33.505Z,1.48
2022-08-01T01:58:16.979Z,1.63
2022-08-01T02:00:45.554Z,1.65
2022-08-01T02:03:13.351Z,1.77
2022-08-01T02:05:43.146Z,3.17
2022-08-01T02:08:11.855Z,1.65
2022-08-01T02:10:40.255Z,3.33
2022-08-01T02:13:07.569Z,2.72
2022-08-01T02:15:59.913Z,2.83
2022-08-01T02:18:26.858Z,1.35
2022-08-01T02:20:55.871Z,1.98
2022-08-01T02:23:25.146Z,2.60
2022-08-01T02:26:09.627Z,3.55
2022-08-01T02:28:46.673Z,2.78
2022-08-01T02:31:15.431Z,1.88
2022-08-01T02:33:49.286Z,2.90
2022-08-01T02:36:31.206Z,4.82
2022-08-01T02:39:04.404Z,4.50
2022-08-01T02:41:32.590Z,1.92
2022-08-01T02:44:04.283Z,3.13
2022-08-01T02:46:53.112Z,21.02
2022-08-01T02:49:22.201Z,25.45
2022-08-01T02:51:50.223Z,22.30
2022-08-01T02:54:19.743Z,10.48
2022-08-01T02:56:49.341Z,4.95
2022-08-01T02:59:21.408Z,1.60
2022-08-01T03:01:50.874Z,4.90
2022-08-01T03:04:19.806Z,2.20
2022-08-01T03:06:48.365Z,4.85
2022-08-01T03:09:16.823Z,4.75
2022-08-01T03:11:45.211Z,2.90
2022-08-01T03:14:13.814Z,4.75
2022-08-01T03:16:43.439Z,2.88
2022-08-01T03:19:11.935Z,4.30
2022-08-01T03:21:40.569Z,2.20
2022-08-01T03:24:08.474Z,3.92
2022-08-01T03:26:37.116Z,1.48
2022-08-01T03:29:10.882Z,3.63
2022-08-01T03:31:39.365Z,5.80
2022-08-01T03:34:07.044Z,3.92
2022-08-01T03:36:35.625Z,3.72
2022-08-01T03:39:05.067Z,2.20
2022-08-01T03:41:38.663Z,2.08
2022-08-01T03:44:11.322Z,2.20
2022-08-01T03:46:43.461Z,10.15
2022-08-01T03:49:24.667Z,1.90
2022-08-01T03:51:52.453Z,5.38
2022-08-01T03:54:23.841Z,2.85
2022-08-01T03:56:52.473Z,1.60
2022-08-01T03:59:20.132Z,1.55
2022-08-01T04:01:47.511Z,3.08
2022-08-01T04:04:14.651Z,1.92
2022-08-01T04:06:42.403Z,2.15
2022-08-01T04:09:13.399Z,2.90
2022-08-01T04:11:40.952Z,1.65
2022-08-01T04:14:08.672Z,1.60
2022-08-01T04:16:36.206Z,9.77
2022-08-01T04:19:03.641Z,5.38
2022-08-01T04:21:33.378Z,4.45
2022-08-01T04:24:05.957Z,1.92
2022-08-01T04:26:35.774Z,3.08
2022-08-01T04:29:05.868Z,3.75
2022-08-01T04:31:33.580Z,2.22
2022-08-01T04:34:03.226Z,1.80
2022-08-01T04:36:31.284Z,2.90
2022-08-01T04:39:01.216Z,2.63
2022-08-01T04:41:28.783Z,2.00
2022-08-01T04:43:56.054Z,3.45
2022-08-01T04:46:23.583Z,3.35
2022-08-01T04:48:51.495Z,2.97
2022-08-01T04:51:22.837Z,2.88
2022-08-01T04:53:51.925Z,2.13
2022-08-01T04:56:20.043Z,4.18
2022-08-01T04:58:46.562Z,5.85
2022-08-01T05:01:13.949Z,2.70
2022-08-01T05:03:40.715Z,2.00
2022-08-01T05:06:07.523Z,4.75
2022-08-01T05:08:34.129Z,3.30
2022-08-01T05:11:02.154Z,2.88
2022-08-01T05:13:28.853Z,2.95
2022-08-01T05:15:55.455Z,2.50
2022-08-01T05:18:28.288Z,2.22
2022-08-01T05:20:55.187Z,2.80
2022-08-01T05:23:40.376Z,1.95
2022-08-01T05:26:08.907Z,1.63
2022-08-01T05:28:36.421Z,2.92
2022-08-01T05:31:04.318Z,2.60
2022-08-01T05:33:30.875Z,2.42
2022-08-01T05:35:57.452Z,2.35
2022-08-01T05:38:23.966Z,2.63
2022-08-01T05:40:50.687Z,2.38
2022-08-01T05:43:17.293Z,6.15
2022-08-01T05:45:43.898Z,2.70
2022-08-01T05:48:10.499Z,3.55
2022-08-01T05:50:37.101Z,3.08
2022-08-01T05:53:03.627Z,3.00
2022-08-01T05:55:30.307Z,3.65
2022-08-01T05:57:56.810Z,3.60
2022-08-01T06:00:23.530Z,4.05
2022-08-01T06:02:50.101Z,2.95
2022-08-01T06:05:16.790Z,2.95
2022-08-01T06:07:43.439Z,4.15
2022-08-01T06:10:10.311Z,2.42
2022-08-01T06:12:37.684Z,4.82
2022-08-01T06:15:05.841Z,2.78
2022-08-01T06:17:32.545Z,2.33
2022-08-01T06:19:59.082Z,2.20
2022-08-01T06:22:25.627Z,2.85
2022-08-01T06:24:52.544Z,3.63
2022-08-01T06:27:21.948Z,2.40
2022-08-01T06:29:53.586Z,3.22
2022-08-01T06:32:26.828Z,3.33
2022-08-01T06:34:53.960Z,4.03
2022-08-01T06:37:20.509Z,3.42
2022-08-01T06:39:47.127Z,4.43
2022-08-01T06:42:15.830Z,4.03
2022-08-01T06:44:42.693Z,5.72
2022-08-01T06:47:09.220Z,4.03
2022-08-01T06:49:36.049Z,4.15
2022-08-01T06:52:04.425Z,4.80
2022-08-01T06:54:31.238Z,4.82
2022-08-01T06:56:57.758Z,4.60
2022-08-01T06:59:24.308Z,4.68
2022-08-01T07:01:50.919Z,4.50
2022-08-01T07:04:17.479Z,4.35
2022-08-01T07:06:44.018Z,4.70
2022-08-01T07:09:14.217Z,4.65
2022-08-01T07:11:42.025Z,4.50
2022-08-01T07:14:09.008Z,3.90
2022-08-01T07:16:35.620Z,3.83
2022-08-01T07:19:02.319Z,5.10
2022-08-01T07:21:40.345Z,5.40
2022-08-01T07:24:13.259Z,7.20
2022-08-01T07:26:53.133Z,7.63
2022-08-01T07:29:22.983Z,8.35
2022-08-01T07:31:49.547Z,7.85
2022-08-01T07:34:16.062Z,9.80
2022-08-01T07:36:43.455Z,9.73
2022-08-01T07:39:09.990Z,14.85
2022-08-01T07:41:52.768Z,12.10
2022-08-01T07:44:23.282Z,12.85
2022-08-01T07:46:49.847Z,9.65
2022-08-01T07:49:16.489Z,8.05
2022-08-01T07:51:43.062Z,9.05
2022-08-01T07:54:33.936Z,10.00
2022-08-01T07:57:02.098Z,13.25
2022-08-01T07:59:28.732Z,14.57
2022-08-01T08:01:55.361Z,18.05
2022-08-01T08:04:21.976Z,20.20
2022-08-01T08:06:48.687Z,19.67
2022-08-01T08:09:16.207Z,25.05
2022-08-01T08:11:48.124Z,33.47
2022-08-01T08:14:16.019Z,39.20
2022-08-01T08:16:43.771Z,42.88
2022-08-01T08:19:10.747Z,43.83
2022-08-01T08:21:38.774Z,44.22
2022-08-01T08:24:31.714Z,48.78
2022-08-01T08:27:00.353Z,46.38
2022-08-01T08:29:28.025Z,52.17
2022-08-01T08:31:58.627Z,46.13
2022-08-01T08:34:26.891Z,46.95
2022-08-01T08:36:55.584Z,50.67
2022-08-01T08:39:22.170Z,51.42
2022-08-01T08:41:50.019Z,54.13
2022-08-01T08:44:20.555Z,47.42
2022-08-01T08:46:49.999Z,51.35
2022-08-01T08:49:21.971Z,51.00
2022-08-01T08:51:51.289Z,50.78
2022-08-01T08:54:21.739Z,48.25
2022-08-01T08:56:49.485Z,50.35
2022-08-01T08:59:16.026Z,48.88
2022-08-01T09:01:43.983Z,49.33
2022-08-01T09:04:11.987Z,50.30
2022-08-01T09:06:39.310Z,47.22
2022-08-01T09:09:07.260Z,48.35
2022-08-01T09:11:34.452Z,49.88
2022-08-01T09:14:16.103Z,51.10
2022-08-01T09:16:48.856Z,52.08
2022-08-01T09:19:40.526Z,51.88
2022-08-01T09:22:08.816Z,53.28
2022-08-01T09:24:36.880Z,52.40
2022-08-01T09:27:21.964Z,66.07
2022-08-01T09:30:01.134Z,61.78
2022-08-01T09:32:36.053Z,59.45
2022-08-01T09:35:30.890Z,62.50
2022-08-01T09:38:16.628Z,62.65
2022-08-01T09:40:49.413Z,68.65
2022-08-01T09:43:16.186Z,69.40
2022-08-01T09:45:43.817Z,73.40
2022-08-01T09:48:18.933Z,78.63
2022-08-01T09:50:50.158Z,73.93
2022-08-01T09:53:24.495Z,79.05
2022-08-01T09:56:10.678Z,80.13
2022-08-01T09:59:00.420Z,77.57
2022-08-01T10:01:36.569Z,77.25
2022-08-01T10:04:20.638Z,84.63
2022-08-01T10:06:55.861Z,89.97
2022-08-01T10:09:39.619Z,94.63
2022-08-01T10:12:08.839Z,97.20
2022-08-01T10:14:37.699Z,103.05
2022-08-01T10:17:07.863Z,107.93
2022-08-01T10:19:38.870Z,117.95
2022-08-01T10:22:08.554Z,119.63
2022-08-01T10:24:41.083Z,127.35
2022-08-01T10:27:12.400Z,137.63
2022-08-01T10:30:05.156Z,143.43
2022-08-01T10:35:06.808Z,132.10
2022-08-01T10:37:52.440Z,153.48
2022-08-01T10:40:36.992Z,122.18
2022-08-01T10:43:04.648Z,129.95
2022-08-01T10:45:31.781Z,152.52
2022-08-01T10:48:03.287Z,143.32
2022-08-01T10:50:43.348Z,155.43
2022-08-01T10:53:24.426Z,133.82
2022-08-01T10:56:04.256Z,130.07
2022-08-01T10:58:42.774Z,125.57
2022-08-01T11:01:23.341Z,140.60
2022-08-01T11:04:01.574Z,126.18
2022-08-01T11:06:34.336Z,156.82
2022-08-01T11:09:36.977Z,135.33
2022-08-01T11:12:23.145Z,138.02
2022-08-01T11:14:59.679Z,138.30
2022-08-01T11:17:37.553Z,144.40
2022-08-01T11:20:34.253Z,152.95
2022-08-01T11:23:02.046Z,157.10
2022-08-01T11:26:05.601Z,160.52
2022-08-01T11:28:32.307Z,162.90
2022-08-01T11:31:14.032Z,171.88
2022-08-01T11:33:40.659Z,173.00
2022-08-01T11:36:36.992Z,180.82
2022-08-01T11:39:13.812Z,174.45
2022-08-01T11:41:42.010Z,179.40
2022-08-01T11:44:17.246Z,191.38
2022-08-01T11:47:09.991Z,164.35
2022-08-01T11:49:55.961Z,190.13
2022-08-01T11:52:32.706Z,147.30
2022-08-01T11:55:10.351Z,159.02
2022-08-01T11:57:41.054Z,178.10
2022-08-01T12:00:17.431Z,166.00
2022-08-01T12:02:58.857Z,182.60
2022-08-01T12:05:26.560Z,134.07
2022-08-01T12:07:55.978Z,159.82
2022-08-01T12:10:25.416Z,191.50
2022-08-01T12:13:00.110Z,104.03
2022-08-01T12:15:32.134Z,109.35
2022-08-01T12:18:01.577Z,106.47
2022-08-01T12:20:31.891Z,90.63
2022-08-01T12:23:10.157Z,97.88
2022-08-01T12:25:38.072Z,76.50
2022-08-01T12:28:06.639Z,113.05
2022-08-01T12:30:38.214Z,88.90
2022-08-01T12:33:10.604Z,106.03
2022-08-01T12:35:39.348Z,73.57
2022-08-01T12:38:07.410Z,85.15
2022-08-01T12:40:38.225Z,59.58
2022-08-01T12:43:09.258Z,68.40
2022-08-01T12:45:54.360Z,68.50
2022-08-01T12:48:24.593Z,61.22
2022-08-01T12:50:53.488Z,62.03
2022-08-01T12:53:21.507Z,77.57
2022-08-01T12:55:58.313Z,59.03
2022-08-01T12:58:32.418Z,61.80
2022-08-01T13:01:14.154Z,66.53
2022-08-01T13:03:41.327Z,57.35
2022-08-01T13:06:16.551Z,67.68
2022-08-01T13:08:44.749Z,64.15
2022-08-01T13:11:16.622Z,74.85
2022-08-01T13:13:53.685Z,60.60
2022-08-01T13:16:27.907Z,67.22
2022-08-01T13:19:01.579Z,73.45
2022-08-01T13:21:52.135Z,62.95
2022-08-01T13:24:17.233Z,67.95
2022-08-01T13:26:52.111Z,84.72
2022-08-01T13:29:21.713Z,68.28
2022-08-01T13:31:48.905Z,69.57
2022-08-01T13:34:16.134Z,74.50
2022-08-01T13:36:49.010Z,73.15
2022-08-01T13:39:35.661Z,80.50
2022-08-01T13:42:02.300Z,75.75
2022-08-01T13:44:28.862Z,75.93
2022-08-01T13:46:57.178Z,83.30
2022-08-01T13:49:24.401Z,90.72
2022-08-01T13:51:51.684Z,85.68
2022-08-01T13:54:19.053Z,98.13
2022-08-01T13:56:45.723Z,115.30
2022-08-01T13:59:12.556Z,113.80
2022-08-01T14:01:39.190Z,98.00
2022-08-01T14:04:06.166Z,109.95
2022-08-01T14:06:33.815Z,93.45
2022-08-01T14:09:01.342Z,88.55
2022-08-01T14:11:30.642Z,94.18
2022-08-01T14:14:04.783Z,93.43
2022-08-01T14:16:35.294Z,96.75
2022-08-01T14:19:04.039Z,83.97
2022-08-01T14:21:30.707Z,77.32
2022-08-01T14:23:57.208Z,88.43
2022-08-01T14:26:23.795Z,71.78
2022-08-01T14:28:50.393Z,77.07
2022-08-01T14:31:16.913Z,89.68
2022-08-01T14:33:43.484Z,81.82
2022-08-01T14:36:30.761Z,78.38
2022-08-01T14:39:00.204Z,77.75
2022-08-01T14:41:28.150Z,84.93
2022-08-01T14:43:54.758Z,63.53
2022-08-01T14:46:21.370Z,69.63
2022-08-01T14:48:47.986Z,63.97
2022-08-01T14:51:14.576Z,63.25
2022-08-01T14:53:45.833Z,58.95
2022-08-01T14:56:13.259Z,54.00
2022-08-01T14:58:39.784Z,52.35
2022-08-01T15:01:06.870Z,44.97
2022-08-01T15:03:33.830Z,44.30
2022-08-01T15:06:00.578Z,43.17
2022-08-01T15:08:27.461Z,38.25
2022-08-01T15:10:54.023Z,34.28
2022-08-01T15:13:20.722Z,31.83
2022-08-01T15:15:47.922Z,29.50
2022-08-01T15:18:14.634Z,25.60
2022-08-01T15:20:41.713Z,23.15
2022-08-01T15:23:08.387Z,22.40
2022-08-01T15:25:40.897Z,20.23
2022-08-01T15:28:12.403Z,18.50
2022-08-01T15:30:39.657Z,18.77
2022-08-01T15:33:06.487Z,18.70
2022-08-01T15:35:33.435Z,19.00
2022-08-01T15:38:00.091Z,18.60
2022-08-01T15:40:27.700Z,19.30
2022-08-01T15:42:54.292Z,20.20
2022-08-01T15:45:47.245Z,19.88
2022-08-01T15:48:08.923Z,20.45
2022-08-01T15:50:35.641Z,20.52
2022-08-01T15:53:02.222Z,19.92
2022-08-01T15:55:28.819Z,20.65
2022-08-01T15:57:56.065Z,19.52
2022-08-01T16:00:22.821Z,22.13
2022-08-01T16:02:50.546Z,19.10
2022-08-01T16:05:20.469Z,18.33
2022-08-01T16:07:59.235Z,19.85
2022-08-01T16:10:28.835Z,18.60
2022-08-01T16:12:55.384Z,18.85
2022-08-01T16:15:22.693Z,18.20
2022-08-01T16:18:01.986Z,19.65
2022-08-01T16:20:29.262Z,19.88
2022-08-01T16:22:55.825Z,19.95
2022-08-01T16:25:22.399Z,20.95
2022-08-01T16:27:48.984Z,20.80
2022-08-01T16:30:15.568Z,22.02
2022-08-01T16:32:45.449Z,20.50
2022-08-01T16:35:15.416Z,21.63
2022-08-01T16:37:42.624Z,24.27
2022-08-01T16:40:09.568Z,24.60
2022-08-01T16:42:36.153Z,25.33
2022-08-01T16:45:08.655Z,22.85
2022-08-01T16:47:39.511Z,26.58
2022-08-01T16:50:06.398Z,27.90
2022-08-01T16:52:32.907Z,30.63
2022-08-01T16:54:59.516Z,30.75
2022-08-01T16:57:26.039Z,34.35
2022-08-01T16:59:52.607Z,36.33
2022-08-01T17:02:19.175Z,43.45
2022-08-01T17:04:45.763Z,46.50
2022-08-01T17:07:12.309Z,48.40
2022-08-01T17:09:43.323Z,56.53
2022-08-01T17:12:10.675Z,51.67
2022-08-01T17:14:39.871Z,58.97
2022-08-01T17:17:07.387Z,61.80
2022-08-01T17:19:34.437Z,60.58
2022-08-01T17:22:01.065Z,62.10
2022-08-01T17:24:27.903Z,65.32
2022-08-01T17:26:54.571Z,73.32
2022-08-01T17:29:21.203Z,75.32
2022-08-01T17:31:47.898Z,74.40
2022-08-01T17:34:14.666Z,78.45
2022-08-01T17:36:41.411Z,78.70
2022-08-01T17:39:08.821Z,87.90
2022-08-01T17:41:35.619Z,95.25
2022-08-01T17:44:02.216Z,97.43
2022-08-01T17:46:28.736Z,102.13
2022-08-01T17:48:55.323Z,125.55
2022-08-01T17:51:23.003Z,146.57
2022-08-01T17:53:56.132Z,177.75
2022-08-01T17:56:24.462Z,195.10
2022-08-01T17:58:52.246Z,200.02
2022-08-01T18:01:20.545Z,221.25
2022-08-01T18:03:48.065Z,256.20
2022-08-01T18:06:19.371Z,266.52
2022-08-01T18:08:47.153Z,290.88
2022-08-01T18:11:15.085Z,289.88
2022-08-01T18:13:41.669Z,292.73
2022-08-01T18:16:11.292Z,302.10
2022-08-01T18:18:39.108Z,299.38
2022-08-01T18:21:07.061Z,324.40
2022-08-01T18:23:35.095Z,297.13
2022-08-01T18:26:03.049Z,311.30
2022-08-01T18:28:34.049Z,291.77
2022-08-01T18:31:03.587Z,270.10
2022-08-01T18:33:30.184Z,303.60
2022-08-01T18:36:03.793Z,269.33
2022-08-01T18:38:33.173Z,280.98
2022-08-01T18:41:00.770Z,243.43
2022-08-01T18:43:27.629Z,255.05
2022-08-01T18:45:56.936Z,266.75
2022-08-01T18:48:23.643Z,284.77
2022-08-01T18:50:50.175Z,368.98
2022-08-01T18:53:18.768Z,314.83
2022-08-01T18:55:46.127Z,356.00
2022-08-01T18:58:12.705Z,350.75
2022-08-01T19:00:39.990Z,381.83
2022-08-01T19:03:07.751Z,330.60
2022-08-01T19:05:35.819Z,360.83
2022-08-01T19:08:06.822Z,395.77
2022-08-01T19:10:36.108Z,391.75
2022-08-01T19:13:03.040Z,398.02
2022-08-01T19:15:29.842Z,376.13
2022-08-01T19:17:56.478Z,398.27
2022-08-01T19:20:23.247Z,394.38
2022-08-01T19:22:51.923Z,393.50
2022-08-01T19:25:18.498Z,328.38
2022-08-01T19:27:48.065Z,273.85
2022-08-01T19:30:17.319Z,248.15
2022-08-01T19:32:45.817Z,229.65
2022-08-01T19:35:14.586Z,232.23
2022-08-01T19:37:47.247Z,230.80
2022-08-01T19:40:26.834Z,215.13
2022-08-01T19:42:56.402Z,203.77
2022-08-01T19:45:23.174Z,206.23
2022-08-01T19:47:57.316Z,221.70
2022-08-01T19:50:29.158Z,220.95
2022-08-01T19:52:57.587Z,221.07
2022-08-01T19:55:25.184Z,225.35
2022-08-01T19:58:26.307Z,224.35
2022-08-01T20:00:40.621Z,239.93
2022-08-01T20:03:09.092Z,252.18
2022-08-01T20:05:37.260Z,219.30
2022-08-01T20:08:06.675Z,263.90
2022-08-01T20:10:34.191Z,284.70
2022-08-01T20:13:01.424Z,278.70
2022-08-01T20:15:29.323Z,277.85
2022-08-01T20:17:59.634Z,231.88
2022-08-01T20:20:27.523Z,234.15
2022-08-01T20:22:56.932Z,306.98
2022-08-01T20:25:32.070Z,237.50
2022-08-01T20:28:08.716Z,286.30
2022-08-01T20:30:35.348Z,241.00
2022-08-01T20:33:01.912Z,172.88
2022-08-01T20:35:51.454Z,169.77
2022-08-01T20:38:17.342Z,166.23
2022-08-01T20:40:45.584Z,177.25
2022-08-01T20:43:12.327Z,166.52
2022-08-01T20:45:39.248Z,133.48
2022-08-01T20:48:08.068Z,121.20
2022-08-01T20:50:54.911Z,113.75
2022-08-01T20:53:24.428Z,118.88
2022-08-01T20:56:00.803Z,89.35
2022-08-01T20:58:37.000Z,106.47
2022-08-01T21:01:09.663Z,90.00
2022-08-01T21:03:45.345Z,83.05
2022-08-01T21:06:14.751Z,86.25
2022-08-01T21:08:44.135Z,93.20
2022-08-01T21:11:19.530Z,88.05
2022-08-01T21:13:48.069Z,85.10
2022-08-01T21:16:25.339Z,76.57
2022-08-01T21:21:51.004Z,67.40
2022-08-01T21:24:18.961Z,53.65
2022-08-01T21:26:46.531Z,63.63
2022-08-01T21:29:13.977Z,51.53
2022-08-01T21:31:41.661Z,46.13
2022-08-01T21:34:09.217Z,29.15
2022-08-01T21:36:36.678Z,35.47
2022-08-01T21:39:05.844Z,36.33
2022-08-01T21:41:56.742Z,27.33
2022-08-01T21:44:20.019Z,23.35
2022-08-01T21:46:48.242Z,32.08
2022-08-01T21:49:14.998Z,30.63
2022-08-01T21:51:51.673Z,20.42
2022-08-01T21:54:28.542Z,18.27
2022-08-01T21:57:14.261Z,21.30
2022-08-01T22:00:02.181Z,21.00
2022-08-01T22:02:36.621Z,17.27
2022-08-01T22:05:09.259Z,22.88
2022-08-01T22:07:45.983Z,17.02
2022-08-01T22:10:18.375Z,22.83
2022-08-01T22:12:46.180Z,19.70
2022-08-01T22:15:14.077Z,22.67
2022-08-01T22:17:41.855Z,20.75
2022-08-01T22:20:09.215Z,20.25
2022-08-01T22:22:51.429Z,18.60
2022-08-01T22:25:21.087Z,19.17
2022-08-01T22:28:06.335Z,18.55
2022-08-01T22:30:39.886Z,19.30
2022-08-01T22:33:17.129Z,16.45
2022-08-01T22:35:55.563Z,14.60
2022-08-01T22:38:24.392Z,13.20
2022-08-01T22:40:51.038Z,12.73
2022-08-01T22:43:29.377Z,12.25
2022-08-01T22:46:14.602Z,11.85
2022-08-01T22:48:51.231Z,11.35
2022-08-01T22:51:38.241Z,9.35
2022-08-01T22:54:09.853Z,9.60
2022-08-01T22:56:41.449Z,9.35
2022-08-01T22:59:13.852Z,8.90
2022-08-01T23:01:47.552Z,7.88
2022-08-01T23:04:35.140Z,7.70
2022-08-01T23:07:05.915Z,7.55
2022-08-01T23:09:52.972Z,6.65
2022-08-01T23:12:24.496Z,6.53
2022-08-01T23:14:57.290Z,6.05
2022-08-01T23:17:28.802Z,6.05
2022-08-01T23:20:01.657Z,5.80
2022-08-01T23:22:31.210Z,6.10
2022-08-01T23:25:05.057Z,5.82
2022-08-01T23:27:51.540Z,5.50
2022-08-01T23:30:25.386Z,5.55
2022-08-01T23:32:51.887Z,6.45
2022-08-01T23:35:18.464Z,6.07
2022-08-01T23:37:45.133Z,7.10
2022-08-01T23:40:12.315Z,5.63
2022-08-01T23:42:38.991Z,5.95
2022-08-01T23:45:07.005Z,5.68
2022-08-01T23:47:33.601Z,5.65
2022-08-01T23:50:00.278Z,5.70
2022-08-01T23:52:32.339Z,5.75
2022-08-01T23:55:04.523Z,5.93
2022-08-01T23:57:41.777Z,5.20
